Terminal Aerodrome Forecast
Issued by NWS

Home | Current Version | Previous Version | Graphics & Text | Print | Product List | Glossary On
Versions: 1 2 3 4 5 6 7 8 9 10 11 12
000
FTUS41 KCLE 221730
TAFFDY
TAF
KFDY 221730Z 2218/2318 30008KT P6SM BKN035
     FM222200 27005KT P6SM SCT035
     FM230900 22005KT P6SM BKN035 OVC100=

USA.gov is the U.S. government's official web portal to all federal, state and local government web resources and services.